Station: Mount Lofty

  Atmospheric Gas Attenuation - ITU Rec 676-11   --------------- db/100km ---------------
Date Time Temp RH % AH g/m3 Dew Point Wind Direction Speed kph Gust kph Barometer mB Rainfall Since 9am 24GHz 47GHz 76GHz 122GHz 134GHz 241GHz
24 20:10 30 19 5.76 3.8 6 6 1013.1 0 13.0 18.1 23.9 62.2 51.6 176.0
24 20:00 30.1 19 5.79 4 4 9 1013.1 0 13.1 18.2 24.0 62.4 51.8 176.8
24 19:50 30.6 18 5.64 3.6 6 7 1013.1 0 12.7 17.9 23.4 60.9 50.1 170.7
24 19:40 31.1 18 5.79 4 7 7 1013.1 0 13.0 18.0 23.7 61.7 51.2 174.7
24 19:30 30.9 18 5.73 3.8 6 13 1013.1 0 12.9 17.9 23.6 61.3 50.7 173.1
24 19:20 30.9 18 5.73 3.8 6 7 1013.1 0 12.9 17.9 23.6 61.3 50.7 173.1
24 19:10 31.3 17 5.53 3.3 6 7 1013.1 0 12.5 17.6 22.9 59.5 48.6 165.7
24 19:00 32.6 15 5.23 2.6 6 17 1013.1 0 11.8 17.1 21.7 56.4 45.1 153.5
24 18:50 33.4 15 5.46 3.2 7 9 1013.1 0 12.3 17.2 22.2 57.6 46.8 159.5
24 18:40 33.2 15 5.4 3.1 9 15 1013.1 0 12.2 17.1 22.0 57.3 46.4 157.9
24 18:30 33.7 15 5.54 3.5 7 19 1013.1 0 12.4 17.2 22.3 58.0 47.4 161.5
24 18:20 35.1 14 5.57 3.6 11 17 1013.1 0 12.5 17.0 22.0 57.3 46.9 159.9
24 18:10 34.8 14 5.48 3.3 11 19 1013.1 0 12.3 17.0 21.9 56.8 46.2 157.6
24 18:00 35.5 13 5.28 2.9 11 28 1013.1 0 11.9 16.6 21.1 54.9 44.1 150.1
24 17:50 36.4 13 5.53 3.5 9 13 1013.1 0 12.3 16.7 21.6 56.1 45.8 156.2
24 17:40 36.3 11 4.65 1.1 13 20 1013.1 0 10.6 15.8 19.3 50.0 38.2 129.5
24 17:30 36.1 11 4.61 1 13 28 1013.1 0 10.5 15.8 19.3 49.8 38.0 128.6
24 17:20 36.2 11 4.63 1 13 22 1013.1 0 10.5 15.8 19.3 49.9 38.1 129.1
24 17:10 36.1 11 4.61 1 20 26 1013.1 0 10.5 15.8 19.3 49.8 38.0 128.6
24 17:00 36.1 12 5.03 2.2 15 26 1013.1 0 11.3 16.2 20.3 52.8 41.6 141.3
24 16:50 35.6 12 4.9 1.8 19 24 1013.1 0 11.1 16.2 20.1 52.2 40.7 138.2
24 16:40 35.6 12 4.9 1.8 19 26 1013.1 0 11.1 16.2 20.1 52.2 40.7 138.2
24 16:30 36.3 12 5.08 2.4 15 32 1013.1 0 11.4 16.3 20.4 53.0 41.9 142.6
24 16:20 35.6 12 4.9 1.8 11 19 1013.1 0 11.1 16.2 20.1 52.2 40.7 138.2
24 16:10 35.6 12 4.9 1.8 22 28 1013.1 0 11.1 16.2 20.1 52.2 40.7 138.2
24 16:00 35.6 12 4.9 1.8 13 26 1013.1 0 11.1 16.2 20.1 52.2 40.7 138.2
24 15:50 35.9 12 4.97 2 9 15 1013.1 0 11.2 16.2 20.2 52.5 41.2 139.8
24 15:40 36.1 12 5.03 2.2 13 19 1013.1 0 11.3 16.2 20.3 52.8 41.6 141.3
24 15:30 35.9 12 4.97 2.1 19 32 1013.1 0 11.2 16.2 20.2 52.5 41.2 139.8
24 15:20 35.4 12 4.85 1.6 22 32 1013.1 0 11.0 16.2 20.0 51.9 40.4 136.9
24 15:10 35.2 12 4.8 1.5 19 28 1013.1 0 10.9 16.1 19.9 51.7 40.0 135.7
24 15:00 35.6 12 4.9 1.8 17 32 1013.1 0 11.1 16.2 20.1 52.2 40.7 138.2
24 14:50 36.7 12 5.18 2.6 17 30 1013.1 0 11.6 16.3 20.6 53.5 42.6 145.0
24 14:40 36 12 5 2.1 17 28 1013.1 0 11.3 16.2 20.3 52.6 41.4 140.6
24 14:30 36 12 5 2.1 17 32 1013.1 0 11.3 16.2 20.3 52.6 41.4 140.6
24 14:20 36.4 12 5.1 2.4 19 26 1013.1 0 11.5 16.3 20.5 53.1 42.0 143.0
24 14:10 36.4 13 5.53 3.5 11 13 1013.1 0 12.3 16.7 21.6 56.1 45.8 156.2
24 14:00 35.8 13 5.36 3.1 20 35 1013.1 0 12.0 16.7 21.3 55.3 44.6 152.0
24 13:50 35.7 12 4.92 1.9 22 37 1013.1 0 11.1 16.2 20.1 52.2 40.8 138.6
24 13:40 35.5 12 4.87 1.7 22 28 1013.1 0 11.0 16.2 20.1 52.0 40.5 137.4
24 13:30 35.1 13 5.17 2.6 15 30 1013.1 0 11.6 16.6 20.9 54.4 43.3 147.3
24 13:20 35.4 12 4.85 1.6 19 26 1013.1 0 11.0 16.2 20.0 51.9 40.4 136.9
24 13:10 35.6 11 4.49 0.6 24 33 1013.1 0 10.3 15.7 19.1 49.3 37.2 125.7
24 13:00 35.4 11 4.44 0.5 15 30 1013.1 0 10.2 15.7 19.0 49.1 36.8 124.5
24 12:50 35.4 12 4.85 1.6 13 20 1013.1 0 11.0 16.2 20.0 51.9 40.4 136.9
24 12:40 35.3 12 4.82 1.6 20 32 1013.1 0 10.9 16.1 20.0 51.8 40.1 136.2
24 12:30 34.9 11 4.33 0.1 15 33 1013.1 0 9.9 15.7 18.8 48.6 36.1 121.8
24 12:20 35.6 12 4.9 1.8 11 15 1013.1 0 11.1 16.2 20.1 52.2 40.7 138.2
24 12:10 34.7 11 4.28 -0.1 11 15 1013.1 0 9.9 15.7 18.7 48.3 35.7 120.6
24 12:00 34.7 11 4.28 -0.1 13 20 1013.1 0 9.9 15.7 18.7 48.3 35.7 120.6
24 11:50 35.4 11 4.44 0.4 13 22 1013.1 0 10.2 15.7 19.0 49.1 36.8 124.5
24 11:40 34.2 11 4.17 -0.5 11 17 1013.1 0 9.6 15.6 18.5 47.9 35.0 117.9
24 11:30 33.8 12 4.46 0.5 13 22 1013.1 0 10.2 16.0 19.4 50.1 37.7 127.4
24 11:20 33.1 12 4.3 -0.1 17 24 1013.1 0 9.9 15.9 19.1 49.4 36.6 123.4
24 11:10 32.8 12 4.23 -0.4 11 15 1013.1 0 9.8 15.9 19.0 49.0 36.1 121.7
24 11:00 32.4 12 4.14 -0.6 13 22 1013.1 0 9.6 15.9 18.8 48.6 35.5 119.5
24 10:50 32.1 12 4.07 -0.9 11 17 1013.1 0 9.5 15.9 18.7 48.3 35.0 117.7
24 10:40 31.9 12 4.03 -1 15 19 1013.1 0 9.4 15.8 18.6 48.1 34.7 116.7
24 10:30 31.7 12 3.99 -1.2 13 28 1013.1 0 9.3 15.8 18.6 48.0 34.4 115.8
24 10:20 31.6 12 3.97 -1.3 15 20 1013.1 0 9.3 15.8 18.5 47.9 34.3 115.3
24 10:10 31.1 12 3.86 -1.7 15 24 1013.1 0 9.1 15.8 18.4 47.4 33.5 112.5
24 10:00 30.6 13 4.07 -0.9 13 35 1013.1 0 9.5 16.1 19.0 49.1 35.6 119.7
24 09:50 30.4 13 4.03 -1.1 13 17 1013.1 0 9.5 16.1 19.0 49.0 35.3 118.7
24 09:40 30.1 13 3.96 -1.4 13 22 1013.1 0 9.3 16.1 18.8 48.6 34.8 116.9
24 09:30 30.1 13 3.96 -1.3 15 26 1013.1 0 9.3 16.1 18.8 48.6 34.8 116.9
24 09:20 30 13 3.94 -1.4 19 30 1013.1 0 9.3 16.0 18.8 48.5 34.7 116.4
24 09:10 29.9 13 3.92 -1.5 15 30 1013.1 0 9.2 16.0 18.8 48.5 34.5 115.9
24 09:00 29.9 13 3.92 -1.5 15 28 1013.1 0 9.2 16.0 18.8 48.5 34.5 115.9
24 08:50 29.7 13 3.88 -1.7 13 20 1013.1 0 9.2 16.0 18.7 48.3 34.3 114.9
24 08:40 29.7 14 4.18 -0.7 11 17 1013.1 0 9.8 16.4 19.5 50.5 37.0 124.5
24 08:30 29.7 14 4.18 -0.6 15 39 1013.1 0 9.8 16.4 19.5 50.5 37.0 124.5
24 08:20 29.4 14 4.11 -0.9 13 20 1013.1 0 9.6 16.3 19.4 50.1 36.5 122.7
24 08:10 29.2 14 4.07 -1.1 20 37 1013.1 0 9.6 16.3 19.3 50.0 36.2 121.7
24 08:00 28.9 14 4 -1.2 15 32 1013.1 0 9.4 16.3 19.2 49.6 35.7 119.9
24 07:50 28.7 15 4.24 -0.5 17 20 1013.1 0 9.9 16.6 19.9 51.5 38.0 127.9
24 07:40 28.6 15 4.22 -0.6 9 15 1013.1 0 9.9 16.6 19.9 51.4 37.8 127.4
24 07:30 28.6 14 3.93 -1.5 15 32 1013.1 0 9.3 16.3 19.1 49.3 35.2 118.0
24 07:20 28.4 15 4.17 -0.7 13 17 1013.1 0 9.8 16.6 19.8 51.2 37.4 126.1
24 07:10 28.4 15 4.17 -0.7 13 20 1013.1 0 9.8 16.6 19.8 51.2 37.4 126.1
24 07:00 28.4 15 4.17 -0.7 15 30 1013.1 0 9.8 16.6 19.8 51.2 37.4 126.1
24 06:50 28.4 15 4.17 -0.7 13 22 1013.1 0 9.8 16.6 19.8 51.2 37.4 126.1
24 06:40 28.2 15 4.12 -0.9 17 32 1013.1 0 9.7 16.5 19.7 50.9 37.1 124.7
24 06:30 28.3 15 4.15 -0.8 13 28 1013.1 0 9.8 16.6 19.8 51.1 37.3 125.5
24 06:20 27.9 16 4.33 -0.3 11 19 1013.1 0 10.1 16.8 20.4 52.7 39.2 132.0
24 06:10 27.8 17 4.57 0.5 13 17 1013.1 0 10.6 17.1 21.1 54.5 41.5 140.1
24 06:00 27.8 17 4.57 0.5 11 24 1013.1 0 10.6 17.1 21.1 54.5 41.5 140.1
24 05:50 27.4 17 4.47 0.2 9 17 1013.1 0 10.4 17.1 20.9 54.0 40.7 137.4
24 05:40 27.1 19 4.92 1.5 9 15 1013.1 0 11.4 17.7 22.2 57.7 45.2 153.1
24 05:30 26.7 20 5.06 1.9 11 24 1013.1 0 11.7 17.9 22.8 59.1 46.7 158.6
24 05:20 26.3 22 5.45 2.9 15 24 1013.1 0 12.5 18.5 24.0 62.5 50.8 172.9
24 04:50 25.4 26 6.12 4.5 11 24 1013.1 0 13.9 19.5 26.4 68.7 58.2 198.8
24 04:40 25.3 27 6.32 4.9 9 17 1013.1 0 14.3 19.8 27.0 70.4 60.3 206.3
24 04:30 25.2 28 6.52 5.4 7 22 1013.1 0 14.7 20.0 27.7 72.2 62.5 213.9
24 04:20 25.2 28 6.52 5.4 9 15 1013.1 0 14.7 20.0 27.7 72.2 62.5 213.9
24 04:10 24.9 29 6.64 5.6 7 11 1013.1 0 15.0 20.3 28.2 73.5 64.0 219.1
24 04:00 24.9 29 6.64 5.7 7 15 1013.1 0 15.0 20.3 28.2 73.5 64.0 219.1
24 03:50 24.9 29 6.64 5.6 7 11 1013.1 0 15.0 20.3 28.2 73.5 64.0 219.1
24 03:40 24.8 30 6.83 6 9 15 1013.1 0 15.4 20.5 28.8 75.2 66.1 226.5
24 03:30 24.6 30 6.75 5.9 9 20 1013.1 0 15.2 20.5 28.6 74.7 65.4 224.0
24 03:20 24.7 30 6.79 5.9 11 19 1013.1 0 15.3 20.5 28.7 75.0 65.7 225.3

Last Refresh: 24-Jan-2021 20:22:06

Most of the information presented on this site is sourced from the Bureau of Meteorology.  Copyright in all material sourced from the Bureau of Meteorology resides with the Commonwealth of Australia.